createdAt,value
2022-08-12T00:00:21.353Z,19.90
2022-08-12T00:03:06.984Z,19.90
2022-08-12T00:06:04.200Z,19.90
2022-08-12T00:08:52.169Z,19.80
2022-08-12T00:11:38.026Z,19.80
2022-08-12T00:14:24.114Z,19.80
2022-08-12T00:17:11.117Z,19.70
2022-08-12T00:19:56.585Z,19.70
2022-08-12T00:22:42.073Z,19.60
2022-08-12T00:26:00.477Z,19.50
2022-08-12T00:28:34.549Z,19.50
2022-08-12T00:31:19.992Z,19.40
2022-08-12T00:34:06.778Z,19.40
2022-08-12T00:36:52.168Z,19.30
2022-08-12T00:39:37.938Z,19.30
2022-08-12T00:42:11.464Z,19.20
2022-08-12T00:44:42.429Z,19.20
2022-08-12T00:47:25.254Z,19.10
2022-08-12T00:49:56.137Z,19.20
2022-08-12T00:52:25.086Z,19.10
2022-08-12T00:55:00.037Z,19.10
2022-08-12T00:57:30.128Z,19.10
2022-08-12T01:00:04.769Z,19.10
2022-08-12T01:02:34.621Z,18.90
2022-08-12T01:05:25.193Z,18.80
2022-08-12T01:08:11.188Z,18.70
2022-08-12T01:10:58.120Z,18.70
2022-08-12T01:13:27.190Z,18.60
2022-08-12T01:15:57.845Z,18.60
2022-08-12T01:18:29.816Z,18.50
2022-08-12T01:21:11.903Z,18.50
2022-08-12T01:24:30.327Z,18.50
2022-08-12T01:26:56.438Z,18.40
2022-08-12T01:29:32.947Z,18.40
2022-08-12T01:32:08.619Z,18.40
2022-08-12T01:34:38.874Z,18.30
2022-08-12T01:37:09.884Z,18.30
2022-08-12T01:40:34.955Z,18.30
2022-08-12T01:42:44.550Z,18.30
2022-08-12T01:45:13.524Z,18.30
2022-08-12T01:47:57.328Z,18.20
2022-08-12T01:50:33.272Z,18.20
2022-08-12T01:53:06.537Z,18.10
2022-08-12T01:55:38.305Z,18.00
2022-08-12T01:58:18.938Z,18.00
2022-08-12T02:00:59.184Z,17.90
2022-08-12T02:04:04.792Z,17.90
2022-08-12T02:07:00.715Z,17.80
2022-08-12T02:10:02.727Z,17.80
2022-08-12T02:12:43.572Z,17.80
2022-08-12T02:15:28.124Z,17.90
2022-08-12T02:18:10.870Z,17.70
2022-08-12T02:20:51.575Z,17.80
2022-08-12T02:23:27.104Z,17.80
2022-08-12T02:25:59.432Z,17.70
2022-08-12T02:28:27.994Z,17.60
2022-08-12T02:31:02.791Z,17.50
2022-08-12T02:33:31.906Z,17.50
2022-08-12T02:36:02.407Z,17.40
2022-08-12T02:38:31.283Z,17.40
2022-08-12T02:41:00.743Z,17.40
2022-08-12T02:43:35.194Z,17.40
2022-08-12T02:46:10.454Z,17.40
2022-08-12T02:48:49.966Z,17.40
2022-08-12T02:51:20.484Z,17.40
2022-08-12T02:54:05.624Z,17.40
2022-08-12T02:56:40.506Z,17.30
2022-08-12T02:59:10.553Z,17.30
2022-08-12T03:01:48.157Z,17.20
2022-08-12T03:04:24.471Z,17.30
2022-08-12T03:07:00.654Z,17.20
2022-08-12T03:10:03.690Z,17.10
2022-08-12T03:12:24.535Z,17.10
2022-08-12T03:14:54.215Z,17.00
2022-08-12T03:17:30.273Z,17.00
2022-08-12T03:20:10.202Z,16.90
2022-08-12T03:22:40.594Z,16.90
2022-08-12T03:25:16.143Z,16.90
2022-08-12T03:27:49.800Z,16.80
2022-08-12T03:30:19.561Z,16.80
2022-08-12T03:32:51.781Z,16.70
2022-08-12T03:35:40.560Z,16.70
2022-08-12T03:38:12.355Z,16.70
2022-08-12T03:41:10.149Z,16.70
2022-08-12T03:44:15.017Z,16.70
2022-08-12T03:47:04.181Z,16.70
2022-08-12T03:49:51.286Z,16.70
2022-08-12T03:52:36.904Z,16.70
2022-08-12T03:55:23.369Z,16.80
2022-08-12T03:58:08.869Z,16.80
2022-08-12T04:00:37.279Z,16.70
2022-08-12T04:03:25.795Z,16.70
2022-08-12T04:05:56.775Z,16.80
2022-08-12T04:08:27.034Z,16.80
2022-08-12T04:11:21.480Z,16.80
2022-08-12T04:13:50.993Z,16.90
2022-08-12T04:16:20.225Z,16.80
2022-08-12T04:18:48.561Z,16.80
2022-08-12T04:21:17.876Z,16.80
2022-08-12T04:23:48.568Z,16.80
2022-08-12T04:26:17.162Z,16.80
2022-08-12T04:28:45.976Z,16.90
2022-08-12T04:31:14.446Z,16.90
2022-08-12T04:33:43.872Z,16.90
2022-08-12T04:36:11.865Z,17.00
2022-08-12T04:38:41.779Z,17.00
2022-08-12T04:41:11.070Z,17.10
2022-08-12T04:44:00.422Z,17.10
2022-08-12T04:46:33.526Z,17.20
2022-08-12T04:49:03.295Z,17.30
2022-08-12T04:51:31.788Z,17.30
2022-08-12T04:54:02.291Z,17.30
2022-08-12T04:56:30.547Z,17.30
2022-08-12T04:59:03.995Z,17.30
2022-08-12T05:01:32.786Z,17.40
2022-08-12T05:04:02.781Z,17.40
2022-08-12T05:06:30.843Z,17.50
2022-08-12T05:09:00.843Z,17.50
2022-08-12T05:11:29.359Z,17.60
2022-08-12T05:14:00.346Z,17.70
2022-08-12T05:16:30.830Z,17.70
2022-08-12T05:19:00.924Z,17.80
2022-08-12T05:21:28.919Z,17.90
2022-08-12T05:23:57.011Z,18.00
2022-08-12T05:26:26.894Z,18.10
2022-08-12T05:28:55.068Z,18.20
2022-08-12T05:31:40.387Z,18.20
2022-08-12T05:34:14.721Z,18.20
2022-08-12T05:36:43.885Z,18.30
2022-08-12T05:39:12.075Z,18.40
2022-08-12T05:41:41.576Z,18.40
2022-08-12T05:44:12.717Z,18.50
2022-08-12T05:46:41.153Z,18.60
2022-08-12T05:49:10.170Z,18.60
2022-08-12T05:51:40.239Z,18.70
2022-08-12T05:54:10.879Z,18.80
2022-08-12T05:56:39.357Z,18.80
2022-08-12T05:59:11.273Z,18.90
2022-08-12T06:02:10.726Z,19.00
2022-08-12T06:04:28.455Z,19.00
2022-08-12T06:06:56.610Z,19.10
2022-08-12T06:09:26.431Z,19.20
2022-08-12T06:12:05.558Z,19.30
2022-08-12T06:14:39.175Z,19.40
2022-08-12T06:17:08.739Z,19.50
2022-08-12T06:20:27.811Z,19.60
2022-08-12T06:24:53.944Z,20.00
2022-08-12T06:27:22.023Z,20.20
2022-08-12T06:30:07.956Z,20.30
2022-08-12T06:32:47.547Z,20.40
2022-08-12T06:35:47.597Z,20.50
2022-08-12T06:38:17.056Z,20.60
2022-08-12T06:41:03.335Z,20.70
2022-08-12T06:44:06.198Z,20.70
2022-08-12T06:46:22.046Z,20.70
2022-08-12T06:48:52.074Z,20.80
2022-08-12T06:51:20.751Z,20.80
2022-08-12T06:53:48.816Z,20.90
2022-08-12T06:56:17.435Z,21.00
2022-08-12T06:58:45.439Z,21.00
2022-08-12T07:01:13.634Z,21.10
2022-08-12T07:03:43.100Z,21.20
2022-08-12T07:06:13.697Z,21.30
2022-08-12T07:08:43.968Z,21.30
2022-08-12T07:11:15.338Z,21.40
2022-08-12T07:14:11.830Z,21.50
2022-08-12T07:16:47.367Z,21.50
2022-08-12T07:19:17.067Z,21.60
2022-08-12T07:21:59.947Z,21.70
2022-08-12T07:24:30.903Z,21.70
2022-08-12T07:26:59.174Z,21.90
2022-08-12T07:29:58.052Z,22.00
2022-08-12T07:32:16.451Z,22.10
2022-08-12T07:34:47.396Z,22.20
2022-08-12T07:37:17.684Z,22.30
2022-08-12T07:39:51.236Z,22.30
2022-08-12T07:42:28.503Z,22.40
2022-08-12T07:44:56.660Z,22.50
2022-08-12T07:47:25.131Z,22.60
2022-08-12T07:50:04.695Z,22.60
2022-08-12T07:52:34.804Z,22.60
2022-08-12T07:55:03.462Z,22.70
2022-08-12T07:57:32.850Z,22.90
2022-08-12T08:00:05.209Z,23.00
2022-08-12T08:02:36.217Z,23.20
2022-08-12T08:05:06.350Z,23.30
2022-08-12T08:07:34.949Z,23.50
2022-08-12T08:10:06.789Z,23.70
2022-08-12T08:12:52.373Z,23.80
2022-08-12T08:15:20.993Z,23.90
2022-08-12T08:18:02.589Z,24.00
2022-08-12T08:20:35.592Z,24.00
2022-08-12T08:23:07.925Z,24.00
2022-08-12T08:25:38.931Z,24.00
2022-08-12T08:28:12.589Z,24.10
2022-08-12T08:30:44.059Z,24.10
2022-08-12T08:33:24.524Z,24.10
2022-08-12T08:36:03.137Z,24.10
2022-08-12T08:38:32.827Z,24.10
2022-08-12T08:42:17.638Z,24.10
2022-08-12T08:44:11.081Z,24.20
2022-08-12T08:46:39.755Z,24.20
2022-08-12T08:49:08.163Z,24.30
2022-08-12T08:51:38.977Z,24.30
2022-08-12T08:54:08.672Z,24.40
2022-08-12T08:56:43.921Z,24.40
2022-08-12T08:59:13.248Z,24.40
2022-08-12T09:01:44.223Z,24.50
2022-08-12T09:07:17.948Z,24.60
2022-08-12T09:10:02.272Z,24.70
2022-08-12T09:15:38.861Z,25.00
2022-08-12T09:18:11.112Z,25.10
2022-08-12T09:20:42.435Z,25.10
2022-08-12T09:24:00.954Z,25.20
2022-08-12T09:26:03.996Z,25.20
2022-08-12T09:28:53.063Z,25.20
2022-08-12T09:32:04.270Z,25.20
2022-08-12T09:34:27.872Z,25.30
2022-08-12T09:37:02.324Z,25.40
2022-08-12T09:39:44.382Z,25.50
2022-08-12T09:43:11.792Z,25.60
2022-08-12T09:46:11.532Z,25.70
2022-08-12T09:48:26.734Z,26.00
2022-08-12T09:51:03.476Z,26.60
2022-08-12T09:53:36.287Z,27.10
2022-08-12T09:57:00.177Z,27.70
2022-08-12T09:59:01.645Z,28.10
2022-08-12T10:01:35.677Z,28.40
2022-08-12T10:04:19.113Z,28.60
2022-08-12T10:06:54.326Z,28.60
2022-08-12T10:09:28.605Z,28.60
2022-08-12T10:12:32.901Z,28.90
2022-08-12T10:15:01.832Z,29.40
2022-08-12T10:17:30.124Z,29.70
2022-08-12T10:19:59.349Z,29.80
2022-08-12T10:22:39.645Z,30.10
2022-08-12T10:26:35.515Z,30.30
2022-08-12T10:28:34.132Z,30.30
2022-08-12T10:31:05.037Z,30.70
2022-08-12T10:33:55.174Z,30.90
2022-08-12T10:36:40.174Z,31.10
2022-08-12T10:40:01.979Z,31.00
2022-08-12T10:42:29.028Z,30.70
2022-08-12T10:45:02.121Z,30.60
2022-08-12T10:48:15.855Z,30.80
2022-08-12T10:50:33.662Z,30.80
2022-08-12T10:53:10.515Z,30.80
2022-08-12T10:55:50.043Z,30.60
2022-08-12T10:58:28.060Z,30.60
2022-08-12T11:01:25.944Z,30.80
2022-08-12T11:04:27.681Z,31.10
2022-08-12T11:07:07.084Z,31.50
2022-08-12T11:09:55.854Z,31.40
2022-08-12T11:12:58.169Z,31.20
2022-08-12T11:15:18.977Z,31.10
2022-08-12T11:17:52.758Z,31.60
2022-08-12T11:20:24.029Z,31.50
2022-08-12T11:22:59.604Z,31.30
2022-08-12T11:25:56.141Z,31.10
2022-08-12T11:28:17.171Z,30.90
2022-08-12T11:31:01.772Z,30.90
2022-08-12T11:34:05.327Z,31.00
2022-08-12T11:36:21.811Z,31.60
2022-08-12T11:38:51.214Z,32.10
2022-08-12T11:41:28.135Z,32.10
2022-08-12T11:44:30.778Z,32.10
2022-08-12T11:46:51.147Z,32.10
2022-08-12T11:49:31.136Z,31.80
2022-08-12T11:52:01.471Z,31.50
2022-08-12T11:54:30.220Z,31.20
2022-08-12T11:56:59.792Z,30.90
2022-08-12T12:02:20.677Z,30.40
2022-08-12T12:04:52.571Z,30.70
2022-08-12T12:07:33.964Z,31.50
2022-08-12T12:10:13.213Z,31.80
2022-08-12T12:12:49.395Z,31.70
2022-08-12T12:15:24.808Z,31.50
2022-08-12T12:17:55.792Z,31.40
2022-08-12T12:20:26.063Z,31.80
2022-08-12T12:22:58.447Z,32.50
2022-08-12T12:25:59.338Z,33.00
2022-08-12T12:28:36.662Z,33.50
2022-08-12T12:31:04.530Z,34.10
2022-08-12T12:33:46.243Z,33.90
2022-08-12T12:36:30.241Z,33.60
2022-08-12T12:39:00.148Z,33.20
2022-08-12T12:42:43.039Z,33.10
2022-08-12T12:44:25.717Z,33.10
2022-08-12T12:46:58.587Z,33.00
2022-08-12T12:49:29.008Z,33.10
2022-08-12T12:52:18.462Z,33.20
2022-08-12T12:54:52.807Z,33.40
2022-08-12T12:57:36.132Z,33.40
2022-08-12T13:00:17.655Z,33.20
2022-08-12T13:02:53.569Z,32.90
2022-08-12T13:05:27.871Z,32.70
2022-08-12T13:08:01.349Z,32.40
2022-08-12T13:10:36.889Z,32.10
2022-08-12T13:14:07.524Z,32.00
2022-08-12T13:15:59.150Z,31.90
2022-08-12T13:18:31.574Z,31.80
2022-08-12T13:20:59.887Z,31.70
2022-08-12T13:23:36.027Z,31.80
2022-08-12T13:26:07.724Z,31.70
2022-08-12T13:28:45.612Z,31.60
2022-08-12T13:31:22.251Z,31.50
2022-08-12T13:34:33.192Z,31.50
2022-08-12T13:36:42.211Z,31.60
2022-08-12T13:39:11.968Z,31.60
2022-08-12T13:41:40.021Z,31.80
2022-08-12T13:44:11.762Z,31.70
2022-08-12T13:46:42.174Z,31.70
2022-08-12T13:49:17.711Z,31.90
2022-08-12T13:52:01.689Z,32.30
2022-08-12T13:54:31.024Z,32.80
2022-08-12T13:56:59.080Z,33.10
2022-08-12T13:59:28.592Z,33.20
2022-08-12T14:02:17.593Z,33.20
2022-08-12T14:04:45.694Z,33.00
2022-08-12T14:07:26.093Z,33.00
2022-08-12T14:10:16.562Z,32.90
2022-08-12T14:12:54.430Z,32.90
2022-08-12T14:15:36.764Z,32.70
2022-08-12T14:18:15.552Z,32.70
2022-08-12T14:20:47.803Z,33.20
2022-08-12T14:24:05.685Z,33.60
2022-08-12T14:26:11.821Z,33.90
2022-08-12T14:28:45.187Z,34.20
2022-08-12T14:31:31.467Z,34.30
2022-08-12T14:34:00.330Z,34.30
2022-08-12T14:36:33.253Z,34.30
2022-08-12T14:39:06.082Z,34.60
2022-08-12T14:41:48.392Z,35.00
2022-08-12T14:44:59.555Z,35.20
2022-08-12T14:47:13.576Z,35.20
2022-08-12T14:50:37.106Z,35.30
2022-08-12T14:53:50.691Z,35.00
2022-08-12T14:58:09.843Z,34.10
2022-08-12T15:00:56.242Z,34.10
2022-08-12T15:03:46.694Z,34.40
2022-08-12T15:06:39.798Z,34.80
2022-08-12T15:09:12.212Z,35.30
2022-08-12T15:11:48.964Z,35.60
2022-08-12T15:14:27.552Z,35.90
2022-08-12T15:17:00.146Z,36.30
2022-08-12T15:20:14.344Z,36.60
2022-08-12T15:22:39.416Z,36.90
2022-08-12T15:25:07.372Z,37.10
2022-08-12T15:28:04.089Z,36.80
2022-08-12T15:30:32.518Z,36.30
2022-08-12T15:33:12.243Z,36.10
2022-08-12T15:35:52.018Z,36.20
2022-08-12T15:38:25.096Z,36.60
2022-08-12T15:40:54.435Z,36.90
2022-08-12T15:43:51.355Z,37.10
2022-08-12T15:46:15.442Z,37.10
2022-08-12T15:48:46.991Z,37.00
2022-08-12T15:51:59.228Z,37.20
2022-08-12T15:54:35.041Z,37.40
2022-08-12T15:57:08.403Z,37.50
2022-08-12T16:00:00.231Z,37.60
2022-08-12T16:02:29.617Z,37.70
2022-08-12T16:04:58.474Z,37.90
2022-08-12T16:07:32.639Z,38.00
2022-08-12T16:10:08.284Z,37.90
2022-08-12T16:12:43.437Z,37.70
2022-08-12T16:15:13.199Z,37.30
2022-08-12T16:18:19.374Z,36.60
2022-08-12T16:20:34.923Z,35.90
2022-08-12T16:23:36.217Z,35.10
2022-08-12T16:26:02.949Z,34.50
2022-08-12T16:28:34.826Z,34.00
2022-08-12T16:31:05.682Z,33.80
2022-08-12T16:33:58.923Z,33.50
2022-08-12T16:36:28.588Z,33.30
2022-08-12T16:38:56.621Z,32.90
2022-08-12T16:41:25.637Z,32.70
2022-08-12T16:43:56.441Z,32.50
2022-08-12T16:46:33.609Z,32.30
2022-08-12T16:49:09.350Z,32.20
2022-08-12T16:51:46.371Z,32.20
2022-08-12T16:54:16.999Z,32.40
2022-08-12T16:56:50.834Z,32.60
2022-08-12T16:59:30.790Z,32.90
2022-08-12T17:02:31.546Z,33.30
2022-08-12T17:05:05.555Z,33.60
2022-08-12T17:07:38.270Z,33.90
2022-08-12T17:10:13.499Z,34.00
2022-08-12T17:12:46.315Z,34.10
2022-08-12T17:15:50.558Z,34.00
2022-08-12T17:18:43.943Z,33.90
2022-08-12T17:20:57.691Z,33.70
2022-08-12T17:23:47.925Z,33.60
2022-08-12T17:26:18.576Z,33.50
2022-08-12T17:28:53.301Z,33.30
2022-08-12T17:32:00.556Z,33.20
2022-08-12T17:34:30.498Z,33.10
2022-08-12T17:37:05.532Z,32.80
2022-08-12T17:40:12.314Z,32.70
2022-08-12T17:42:32.291Z,32.60
2022-08-12T17:45:17.448Z,32.30
2022-08-12T17:48:00.967Z,32.20
2022-08-12T17:50:33.435Z,31.90
2022-08-12T17:53:03.715Z,31.60
2022-08-12T17:55:40.805Z,31.50
2022-08-12T17:58:15.870Z,31.40
2022-08-12T18:00:45.506Z,31.30
2022-08-12T18:04:04.263Z,31.00
2022-08-12T18:06:08.645Z,30.90
2022-08-12T18:08:54.221Z,30.70
2022-08-12T18:12:06.645Z,30.60
2022-08-12T18:14:30.080Z,30.40
2022-08-12T18:17:00.815Z,30.30
2022-08-12T18:19:34.182Z,30.20
2022-08-12T18:22:22.134Z,30.10
2022-08-12T18:25:03.680Z,29.90
2022-08-12T18:27:44.164Z,29.80
2022-08-12T18:30:20.625Z,29.70
2022-08-12T18:33:04.032Z,29.50
2022-08-12T18:35:46.366Z,29.30
2022-08-12T18:38:17.936Z,29.20
2022-08-12T18:41:10.192Z,29.10
2022-08-12T18:43:59.167Z,28.90
2022-08-12T18:46:42.747Z,28.80
2022-08-12T18:49:18.762Z,28.60
2022-08-12T18:51:55.291Z,28.50
2022-08-12T18:54:32.177Z,28.40
2022-08-12T18:57:07.092Z,28.20
2022-08-12T19:00:02.024Z,28.10
2022-08-12T19:02:39.845Z,28.10
2022-08-12T19:05:10.800Z,28.00
2022-08-12T19:07:57.998Z,27.90
2022-08-12T19:10:31.445Z,27.80
2022-08-12T19:13:23.129Z,27.60
2022-08-12T19:15:53.484Z,27.40
2022-08-12T19:18:24.352Z,27.30
2022-08-12T19:20:52.409Z,27.20
2022-08-12T19:23:22.348Z,27.10
2022-08-12T19:26:01.242Z,27.00
2022-08-12T19:28:34.647Z,27.00
2022-08-12T19:31:55.960Z,26.90
2022-08-12T19:37:18.033Z,26.80
2022-08-12T19:40:09.366Z,26.70
2022-08-12T19:42:42.809Z,26.70
2022-08-12T19:45:15.695Z,26.80
2022-08-12T19:47:46.056Z,26.80
2022-08-12T19:50:19.609Z,26.70
2022-08-12T19:52:50.915Z,26.70
2022-08-12T19:55:23.532Z,26.70
2022-08-12T19:58:02.507Z,26.60
2022-08-12T20:00:34.844Z,26.40
2022-08-12T20:03:05.274Z,26.30
2022-08-12T20:06:05.453Z,26.20
2022-08-12T20:08:34.047Z,26.20
2022-08-12T20:12:15.042Z,26.10
2022-08-12T20:14:00.545Z,26.10
2022-08-12T20:16:54.527Z,26.00
2022-08-12T20:19:52.377Z,26.00
2022-08-12T20:22:23.486Z,25.90
2022-08-12T20:24:55.122Z,25.80
2022-08-12T20:27:28.590Z,25.80
2022-08-12T20:30:15.216Z,25.70
2022-08-12T20:32:55.094Z,25.70
2022-08-12T20:35:24.997Z,25.70
2022-08-12T20:38:26.450Z,25.60
2022-08-12T20:40:55.304Z,25.60
2022-08-12T20:43:24.249Z,25.60
2022-08-12T20:45:58.141Z,25.50
2022-08-12T20:48:28.571Z,25.40
2022-08-12T20:50:57.920Z,25.40
2022-08-12T20:53:54.311Z,25.20
2022-08-12T20:56:31.413Z,25.20
2022-08-12T20:59:01.063Z,25.20
2022-08-12T21:01:46.576Z,25.10
2022-08-12T21:04:36.299Z,25.10
2022-08-12T21:07:09.371Z,25.10
2022-08-12T21:09:41.560Z,25.20
2022-08-12T21:12:27.346Z,25.20
2022-08-12T21:15:22.811Z,25.30
2022-08-12T21:18:08.109Z,25.30
2022-08-12T21:20:38.535Z,25.20
2022-08-12T21:23:07.550Z,25.10
2022-08-12T21:25:44.500Z,25.10
2022-08-12T21:28:13.763Z,25.10
2022-08-12T21:31:11.780Z,25.10
2022-08-12T21:33:31.805Z,25.00
2022-08-12T21:36:02.713Z,25.00
2022-08-12T21:38:34.419Z,25.00
2022-08-12T21:41:06.792Z,25.00
2022-08-12T21:43:40.319Z,25.10
2022-08-12T21:46:33.715Z,25.10
2022-08-12T21:49:05.308Z,25.10
2022-08-12T21:51:49.812Z,25.10
2022-08-12T21:54:21.681Z,25.10
2022-08-12T21:56:53.636Z,25.10
2022-08-12T21:59:22.852Z,25.10
2022-08-12T22:01:51.417Z,25.00
2022-08-12T22:04:37.449Z,25.00
2022-08-12T22:07:07.865Z,25.00
2022-08-12T22:09:43.466Z,25.00
2022-08-12T22:12:29.684Z,25.00
2022-08-12T22:14:57.687Z,24.90
2022-08-12T22:17:49.606Z,24.90
2022-08-12T22:20:21.890Z,24.90
2022-08-12T22:22:56.998Z,24.90
2022-08-12T22:25:28.681Z,24.90
2022-08-12T22:28:14.981Z,24.80
2022-08-12T22:31:00.973Z,24.80
2022-08-12T22:33:29.025Z,24.80
2022-08-12T22:36:00.075Z,24.80
2022-08-12T22:38:30.425Z,24.80
2022-08-12T22:41:00.754Z,24.80
2022-08-12T22:44:00.148Z,24.70
2022-08-12T22:46:51.976Z,24.70
2022-08-12T22:49:36.256Z,24.70
2022-08-12T22:52:12.097Z,24.60
2022-08-12T22:54:46.312Z,24.50
2022-08-12T22:57:49.546Z,24.50
2022-08-12T23:00:23.899Z,24.50
2022-08-12T23:02:58.388Z,24.50
2022-08-12T23:05:36.997Z,24.50
2022-08-12T23:08:17.831Z,24.50
2022-08-12T23:10:47.440Z,24.40
2022-08-12T23:13:43.854Z,24.40
2022-08-12T23:16:28.041Z,24.40
2022-08-12T23:19:01.584Z,24.30
2022-08-12T23:21:40.305Z,24.30
2022-08-12T23:24:26.305Z,24.30
2022-08-12T23:27:13.580Z,24.30
2022-08-12T23:29:59.363Z,24.30
2022-08-12T23:32:54.076Z,24.20
2022-08-12T23:35:22.496Z,24.30
2022-08-12T23:37:53.692Z,24.20
2022-08-12T23:40:24.654Z,24.20
2022-08-12T23:42:55.247Z,24.20
2022-08-12T23:45:31.915Z,24.10
2022-08-12T23:48:03.120Z,24.10
2022-08-12T23:50:33.748Z,24.10
2022-08-12T23:53:05.605Z,24.10
2022-08-12T23:55:38.232Z,24.10
2022-08-12T23:58:18.217Z,24.10
